Grand Canyon, AZ

1:11 AM MST on October 20, 2014 (GMT -0700)
Grand Canyon National Park | Change Station
CLOSE
Current Station
Airport
Location: Grand Canyon,
Elevation: 6608 ft
Nearby Weather Stations

Elev 6608 ft 35.95 °N, 112.15 °W | Updated 17 minutes ago

Clear
Clear
41 °F
Feels Like 41 °F
N
0
Wind Variable Wind from North

Today
High -- | Low -- °F
--% Chance of Precip.
Yesterday
High -- | Low -- °F
Precip. -- in
6:39 AM 5:46 PM
Waning Crescent, 12% visible
Pressure 29.96 in
Visibility 10.0 miles
Clouds Clear
Dew Point 34 °F
Humidity 76%
Rainfall 0.00 in
Snow Depth Not available.
UV 0 out of 12
Pollen 4.30 out of 12
Air Quality Not available.
Flu Activity No Activity
METAR KGCN 200754Z AUTO 00000KT 10SM CLR 05/01 A3017 RMK AO2 SLP145 T00500011

More Conditions Fewer Conditions

Pressure 29.96 in
Visibility 10.0 miles
Clouds Clear
Dew Point 34 °F
Humidity 76%
Rainfall 0.00 in
Snow Depth Not available.
UV 0 out of 12
Pollen 4.30 out of 12
Air Quality Not available.
Flu Activity No Activity
METAR KGCN 200754Z AUTO 00000KT 10SM CLR 05/01 A3017 RMK AO2 SLP145 T00500011

More Conditions Fewer Conditions

10-Day Weather Forecast

Almanac

Astronomy

Oct. 20, 2014 Rise Set
Actual Time 6:39 AM MST 5:46 PM MST
Civil Twilight 6:13 AM MST 6:12 PM MST
Nautical Twilight 5:43 AM MST 6:42 PM MST
Astronomical Twilight 5:14 AM MST 7:11 PM MST
Moon 3:37 AM MST 4:06 PM MST
Length of Visible Light 11h 58m
Length of Day
11h 06m
Waning Crescent, 12% of the Moon is Illuminated
Today
Waning Crescent
Oct 23
New
Oct 30
First Quarter
Nov 6
Full
Nov 14
Last Quarter

Today's Extremes

State Highs State Lows

Community

WunderPhotos

Upload Photos

1,763,316 photos uploaded!

Nearby

Snow Depth

Station Depth Elevation
Snowslide Canyon 0 in 9730 ft
White Horse Lake 1 in 7180 ft
Mormon Mountain 0 in 7500 ft
Happy Jack 0 in 7630 ft
Baker Butte 1 in 7300 ft

Earthquake Activity

City Distance Mag. Time & Date
No recent earthquake activity has been reported nearby.
Minimum magnitude displayed is 2.5.

Coastal Water Temperatures

Place Temperature
No Stations Reporting

Nearby Weather Stations